CYTZ/YTZ METAR and TAF weather

Enter ICAO airport designator
Station Type Date Time Source
CYTZ METAR 2020/06/01 16:00 UTC NOAA

CYTZ 011600Z AUTO 18008KT 9SM BKN100 15/07 A3020 RMK SLP231


Station Type Date Time Source
CYTZ Decoded METAR 2020/06/01 16:00 UTC NOAA

Toronto Island Airport Automated Reporting Station, Canada (CYTZ) 43-38N 079-24W
Jun 01, 2020 - 12:00 PM EDT / 2020.06.01 1600 UTC
Wind: from the S (180 degrees) at 9 MPH (8 KT):0
Visibility: 9 mile(s):0
Sky conditions: mostly cloudy
Temperature: 59 F (15 C)
Dew Point: 44 F (7 C)
Relative Humidity: 58%
Pressure (altimeter): 30.2 in. Hg (1022 hPa)
ob: CYTZ 011600Z AUTO 18008KT 9SM BKN100 15/07 A3020 RMK SLP231
cycle: 16

Station Type Date Time Source
CYTZ TAF 2020/06/01 14:45 UTC NOAA

TAF CYTZ 011338Z 0114/0214 28005KT P6SM FEW200
BECMG 0116/0118 26015KT
BECMG 0200/0202 27008KT
FM020500 24008KT P6SM BKN100
FM020900 20012KT P6SM -SHRA SCT040 OVC080
FM021200 20012KT 6SM -DZ BR SCT008 OVC015
RMK FCST BASED ON AUTO OBS. NXT FCST BY 012000Z

Example: see airport list